createdAt,value
2024-01-09T00:00:25.609Z,-7.65
2024-01-09T00:03:14.239Z,-7.60
2024-01-09T00:05:42.952Z,-7.55
2024-01-09T00:08:11.641Z,-7.54
2024-01-09T00:10:40.091Z,-7.52
2024-01-09T00:13:08.634Z,-7.51
2024-01-09T00:15:37.019Z,-7.46
2024-01-09T00:18:05.893Z,-7.44
2024-01-09T00:20:34.691Z,-7.49
2024-01-09T00:23:03.349Z,-7.48
2024-01-09T00:25:32.869Z,-7.44
2024-01-09T00:28:01.430Z,-7.45
2024-01-09T00:30:29.883Z,-7.46
2024-01-09T00:32:58.479Z,-7.50
2024-01-09T00:35:27.172Z,-7.53
2024-01-09T00:37:55.811Z,-7.56
2024-01-09T00:40:24.336Z,-7.59
2024-01-09T00:42:52.807Z,-7.67
2024-01-09T00:45:21.232Z,-7.64
2024-01-09T00:47:49.860Z,-7.66
2024-01-09T00:50:18.811Z,-7.61
2024-01-09T00:52:48.240Z,-7.58
2024-01-09T00:55:19.051Z,-7.62
2024-01-09T00:57:47.419Z,-7.64
2024-01-09T01:00:19.950Z,-7.59
2024-01-09T01:02:48.656Z,-7.64
2024-01-09T01:05:18.612Z,-7.68
2024-01-09T01:07:47.268Z,-7.78
2024-01-09T01:10:18.709Z,-7.85
2024-01-09T01:12:49.510Z,-7.94
2024-01-09T01:15:18.185Z,-8.01
2024-01-09T01:17:46.895Z,-8.08
2024-01-09T01:20:16.431Z,-8.04
2024-01-09T01:22:44.960Z,-8.10
2024-01-09T01:25:13.598Z,-8.14
2024-01-09T01:27:42.349Z,-8.21
2024-01-09T01:30:11.031Z,-8.19
2024-01-09T01:32:40.569Z,-8.29
2024-01-09T01:35:09.155Z,-8.27
2024-01-09T01:37:37.753Z,-8.24
2024-01-09T01:40:07.267Z,-8.27
2024-01-09T01:42:35.790Z,-8.26
2024-01-09T01:45:17.809Z,-8.27
2024-01-09T01:47:47.251Z,-8.25
2024-01-09T01:50:16.827Z,-8.31
2024-01-09T01:52:47.173Z,-8.27
2024-01-09T01:55:19.353Z,-8.24
2024-01-09T01:57:49.401Z,-8.21
2024-01-09T02:00:19.600Z,-8.21
2024-01-09T02:02:52.023Z,-8.16
2024-01-09T02:05:23.247Z,-8.11
2024-01-09T02:07:54.685Z,-8.08
2024-01-09T02:10:24.473Z,-8.12
2024-01-09T02:12:53.051Z,-8.10
2024-01-09T02:15:21.738Z,-8.13
2024-01-09T02:17:50.437Z,-8.15
2024-01-09T02:20:23.514Z,-8.20
2024-01-09T02:22:52.014Z,-8.19
2024-01-09T02:25:20.465Z,-8.22
2024-01-09T02:27:51.498Z,-8.30
2024-01-09T02:30:20.741Z,-8.33
2024-01-09T02:32:49.560Z,-8.44
2024-01-09T02:35:19.432Z,-8.40
2024-01-09T02:37:48.413Z,-8.49
2024-01-09T02:40:17.059Z,-8.50
2024-01-09T02:42:45.496Z,-8.52
2024-01-09T02:45:15.039Z,-8.57
2024-01-09T02:47:44.292Z,-8.52
2024-01-09T02:50:13.200Z,-8.50
2024-01-09T02:52:41.718Z,-8.48
2024-01-09T02:55:10.601Z,-8.61
2024-01-09T02:57:42.051Z,-8.66
2024-01-09T03:00:11.805Z,-8.62
2024-01-09T03:02:40.348Z,-8.65
2024-01-09T03:05:09.873Z,-8.69
2024-01-09T03:07:38.508Z,-8.78
2024-01-09T03:10:08.090Z,-8.82
2024-01-09T03:12:36.569Z,-8.77
2024-01-09T03:15:06.076Z,-8.93
2024-01-09T03:17:34.627Z,-8.91
2024-01-09T03:20:03.708Z,-8.96
2024-01-09T03:22:32.217Z,-9.07
2024-01-09T03:25:00.636Z,-9.08
2024-01-09T03:27:29.804Z,-9.14
2024-01-09T03:29:59.648Z,-9.21
2024-01-09T03:32:28.149Z,-9.22
2024-01-09T03:34:56.918Z,-9.22
2024-01-09T03:37:26.253Z,-9.27
2024-01-09T03:39:54.887Z,-9.36
2024-01-09T03:42:23.431Z,-9.44
2024-01-09T03:44:51.957Z,-9.42
2024-01-09T03:47:20.521Z,-9.47
2024-01-09T03:49:49.307Z,-9.45
2024-01-09T03:52:17.884Z,-9.49
2024-01-09T03:54:46.726Z,-9.57
2024-01-09T03:57:17.193Z,-9.56
2024-01-09T03:59:46.968Z,-9.64
2024-01-09T04:02:15.917Z,-9.69
2024-01-09T04:04:44.558Z,-9.67
2024-01-09T04:07:13.357Z,-9.70
2024-01-09T04:09:42.052Z,-9.74
2024-01-09T04:12:10.729Z,-9.94
2024-01-09T04:14:39.304Z,-10.00
2024-01-09T04:17:07.890Z,-10.05
2024-01-09T04:19:40.385Z,-10.06
2024-01-09T04:22:08.912Z,-10.06
2024-01-09T04:24:37.444Z,-10.07
2024-01-09T04:27:06.141Z,-10.08
2024-01-09T04:29:35.074Z,-10.14
2024-01-09T04:32:04.709Z,-10.16
2024-01-09T04:34:33.779Z,-10.12
2024-01-09T04:37:02.171Z,-10.13
2024-01-09T04:39:30.972Z,-10.33
2024-01-09T04:41:59.707Z,-10.34
2024-01-09T04:44:28.463Z,-10.47
2024-01-09T04:46:57.006Z,-10.48
2024-01-09T04:49:25.577Z,-10.43
2024-01-09T04:51:54.494Z,-10.39
2024-01-09T04:54:23.271Z,-10.40
2024-01-09T04:56:51.858Z,-10.40
2024-01-09T04:59:20.353Z,-10.45
2024-01-09T05:01:51.760Z,-10.46
2024-01-09T05:04:20.170Z,-10.45
2024-01-09T05:06:48.697Z,-10.47
2024-01-09T05:09:17.314Z,-10.51
2024-01-09T05:11:46.471Z,-10.51
2024-01-09T05:14:14.912Z,-10.56
2024-01-09T05:16:43.421Z,-10.61
2024-01-09T05:19:12.132Z,-10.64
2024-01-09T05:21:40.826Z,-10.67
2024-01-09T05:24:09.248Z,-10.63
2024-01-09T05:26:37.734Z,-10.65
2024-01-09T05:29:06.452Z,-10.67
2024-01-09T05:31:43.090Z,-10.72
2024-01-09T05:34:11.786Z,-10.68
2024-01-09T05:36:40.608Z,-10.68
2024-01-09T05:39:09.043Z,-10.74
2024-01-09T05:41:37.669Z,-10.73
2024-01-09T05:44:06.653Z,-10.73
2024-01-09T05:46:35.622Z,-10.71
2024-01-09T05:49:04.449Z,-10.72
2024-01-09T05:51:33.926Z,-10.76
2024-01-09T05:54:02.482Z,-10.77
2024-01-09T05:56:30.943Z,-10.85
2024-01-09T05:58:59.512Z,-10.90
2024-01-09T06:01:28.179Z,-10.94
2024-01-09T06:03:56.758Z,-10.96
2024-01-09T06:06:25.787Z,-11.03
2024-01-09T06:08:54.604Z,-10.97
2024-01-09T06:11:23.381Z,-10.96
2024-01-09T06:13:51.871Z,-10.91
2024-01-09T06:16:20.480Z,-10.88
2024-01-09T06:18:49.292Z,-10.91
2024-01-09T06:21:18.523Z,-10.88
2024-01-09T06:23:49.083Z,-10.79
2024-01-09T06:26:18.012Z,-10.73
2024-01-09T06:28:46.535Z,-10.63
2024-01-09T06:31:15.066Z,-10.56
2024-01-09T06:33:44.002Z,-10.53
2024-01-09T06:36:12.748Z,-10.52
2024-01-09T06:38:41.512Z,-10.45
2024-01-09T06:41:10.048Z,-10.42
2024-01-09T06:43:38.863Z,-10.39
2024-01-09T06:46:08.862Z,-10.31
2024-01-09T06:48:37.862Z,-10.17
2024-01-09T06:51:06.734Z,-10.16
2024-01-09T06:53:35.489Z,-10.05
2024-01-09T06:56:10.665Z,-9.66
2024-01-09T06:58:39.388Z,-8.76
2024-01-09T07:01:11.086Z,-7.99
2024-01-09T07:03:42.351Z,-7.63
2024-01-09T07:06:12.107Z,-7.47
2024-01-09T07:08:41.048Z,-6.78
2024-01-09T07:11:09.816Z,-5.71
2024-01-09T07:13:38.167Z,-4.61
2024-01-09T07:16:07.447Z,-3.82
2024-01-09T07:18:36.131Z,-3.02
2024-01-09T07:21:04.839Z,-2.44
2024-01-09T07:23:33.410Z,-2.09
2024-01-09T07:26:02.253Z,-2.00
2024-01-09T07:28:32.707Z,-2.43
2024-01-09T07:31:04.620Z,-2.77
2024-01-09T07:33:33.470Z,-1.97
2024-01-09T07:36:02.600Z,-1.06
2024-01-09T07:38:31.304Z,-0.09
2024-01-09T07:41:01.169Z,0.32
2024-01-09T07:43:30.573Z,0.62
2024-01-09T07:45:59.150Z,1.06
2024-01-09T07:48:27.869Z,1.38
2024-01-09T07:50:57.826Z,1.89
2024-01-09T07:53:26.382Z,1.52
2024-01-09T07:55:54.893Z,1.62
2024-01-09T07:58:23.304Z,1.42
2024-01-09T08:00:51.880Z,1.50
2024-01-09T08:03:22.744Z,2.06
2024-01-09T08:05:51.976Z,2.52
2024-01-09T08:08:20.732Z,2.26
2024-01-09T08:10:49.348Z,2.50
2024-01-09T08:13:17.870Z,3.28
2024-01-09T08:15:46.254Z,3.32
2024-01-09T08:18:16.067Z,3.52
2024-01-09T08:20:46.945Z,3.21
2024-01-09T08:23:17.795Z,3.35
2024-01-09T08:25:47.671Z,3.62
2024-01-09T08:28:16.135Z,4.19
2024-01-09T08:30:45.420Z,4.50
2024-01-09T08:33:14.951Z,4.48
2024-01-09T08:35:45.454Z,5.03
2024-01-09T08:38:15.453Z,5.27
2024-01-09T08:40:46.648Z,4.81
2024-01-09T08:43:16.049Z,4.66
2024-01-09T08:45:45.039Z,4.46
2024-01-09T08:48:14.848Z,4.41
2024-01-09T08:50:44.476Z,4.82
2024-01-09T08:53:13.274Z,4.18
2024-01-09T08:55:41.927Z,3.72
2024-01-09T08:58:11.070Z,3.48
2024-01-09T09:00:39.594Z,3.86
2024-01-09T09:03:08.352Z,4.21
2024-01-09T09:05:37.810Z,4.57
2024-01-09T09:08:06.807Z,4.70
2024-01-09T09:10:35.226Z,5.34
2024-01-09T09:13:05.123Z,5.10
2024-01-09T09:15:33.710Z,5.22
2024-01-09T09:18:02.648Z,5.77
2024-01-09T09:20:31.431Z,5.71
2024-01-09T09:23:00.278Z,6.20
2024-01-09T09:25:28.970Z,6.09
2024-01-09T09:27:57.342Z,6.80
2024-01-09T09:30:28.452Z,6.87
2024-01-09T09:33:00.027Z,6.70
2024-01-09T09:35:29.717Z,6.25
2024-01-09T09:37:58.435Z,6.04
2024-01-09T09:40:28.459Z,6.24
2024-01-09T09:42:59.597Z,6.15
2024-01-09T09:45:28.814Z,5.62
2024-01-09T09:47:58.528Z,4.47
2024-01-09T09:50:27.970Z,4.89
2024-01-09T09:52:58.220Z,5.70
2024-01-09T09:55:26.907Z,5.71
2024-01-09T09:57:55.698Z,6.34
2024-01-09T10:00:24.505Z,6.77
2024-01-09T10:02:55.300Z,6.85
2024-01-09T10:05:24.354Z,6.70
2024-01-09T10:07:54.641Z,6.78
2024-01-09T10:10:23.438Z,5.86
2024-01-09T10:12:55.180Z,5.70
2024-01-09T10:15:23.795Z,5.47
2024-01-09T10:17:53.257Z,6.11
2024-01-09T10:20:24.362Z,6.60
2024-01-09T10:22:56.280Z,7.07
2024-01-09T10:25:25.927Z,7.58
2024-01-09T10:27:56.195Z,7.65
2024-01-09T10:30:25.197Z,6.19
2024-01-09T10:32:54.334Z,5.05
2024-01-09T10:35:23.204Z,5.91
2024-01-09T10:37:54.553Z,5.73
2024-01-09T10:40:27.614Z,5.73
2024-01-09T10:42:56.062Z,5.11
2024-01-09T10:45:25.864Z,5.60
2024-01-09T10:47:55.933Z,5.15
2024-01-09T10:50:25.733Z,5.32
2024-01-09T10:52:54.716Z,5.61
2024-01-09T10:55:25.063Z,5.93
2024-01-09T10:57:53.741Z,5.83
2024-01-09T11:00:23.025Z,5.84
2024-01-09T11:02:53.238Z,6.12
2024-01-09T11:05:22.248Z,5.99
2024-01-09T11:07:56.442Z,5.91
2024-01-09T11:10:26.176Z,5.73
2024-01-09T11:12:55.171Z,5.77
2024-01-09T11:15:27.799Z,5.77
2024-01-09T11:18:09.277Z,6.16
2024-01-09T11:20:38.352Z,5.49
2024-01-09T11:23:06.900Z,5.05
2024-01-09T11:25:36.709Z,4.99
2024-01-09T11:28:07.891Z,4.67
2024-01-09T11:30:38.857Z,4.98
2024-01-09T11:33:33.958Z,4.80
2024-01-09T11:36:07.219Z,4.60
2024-01-09T11:38:36.573Z,3.82
2024-01-09T11:41:11.340Z,3.81
2024-01-09T11:44:00.548Z,3.78
2024-01-09T11:46:32.157Z,3.75
2024-01-09T11:49:02.164Z,3.47
2024-01-09T11:51:33.169Z,4.01
2024-01-09T11:54:03.171Z,4.32
2024-01-09T11:56:31.880Z,4.44
2024-01-09T11:59:01.537Z,4.37
2024-01-09T12:01:30.134Z,3.83
2024-01-09T12:03:59.502Z,3.53
2024-01-09T12:06:32.983Z,3.79
2024-01-09T12:09:02.165Z,3.96
2024-01-09T12:11:31.286Z,3.96
2024-01-09T12:14:04.107Z,3.95
2024-01-09T12:16:33.771Z,3.65
2024-01-09T12:19:03.738Z,3.74
2024-01-09T12:21:35.470Z,3.91
2024-01-09T12:26:38.809Z,2.44
2024-01-09T12:29:08.061Z,2.49
2024-01-09T12:31:37.670Z,2.04
2024-01-09T12:34:07.268Z,2.35
2024-01-09T12:36:36.151Z,1.87
2024-01-09T12:39:09.735Z,1.67
2024-01-09T12:41:40.738Z,1.31
2024-01-09T12:44:10.992Z,1.34
2024-01-09T12:46:44.724Z,1.46
2024-01-09T12:49:14.705Z,1.56
2024-01-09T12:51:43.969Z,2.00
2024-01-09T12:54:21.843Z,1.90
2024-01-09T12:56:51.586Z,1.51
2024-01-09T12:59:24.546Z,1.29
2024-01-09T13:01:54.978Z,1.31
2024-01-09T13:04:23.338Z,1.12
2024-01-09T13:06:52.330Z,1.05
2024-01-09T13:09:21.440Z,1.05
2024-01-09T13:11:50.766Z,0.59
2024-01-09T13:14:20.090Z,0.05
2024-01-09T13:16:53.069Z,-1.00
2024-01-09T13:19:21.843Z,-1.81
2024-01-09T13:23:44.556Z,-2.51
2024-01-09T13:24:39.696Z,-3.34
2024-01-09T13:27:08.441Z,-4.07
2024-01-09T13:30:46.784Z,-4.55
2024-01-09T13:32:26.247Z,-5.13
2024-01-09T13:34:56.569Z,-5.60
2024-01-09T13:37:25.202Z,-6.03
2024-01-09T13:39:58.198Z,-6.26
2024-01-09T13:42:28.003Z,-6.52
2024-01-09T13:44:58.883Z,-6.94
2024-01-09T13:47:28.875Z,-7.01
2024-01-09T13:52:30.629Z,-6.88
2024-01-09T13:55:00.334Z,-6.59
2024-01-09T13:57:29.117Z,-6.46
2024-01-09T13:59:59.465Z,-6.45
2024-01-09T14:02:30.849Z,-6.70
2024-01-09T14:04:59.711Z,-6.86
2024-01-09T14:07:28.836Z,-7.04
2024-01-09T14:09:58.486Z,-7.30
2024-01-09T14:12:27.296Z,-7.54
2024-01-09T14:14:55.957Z,-7.81
2024-01-09T14:17:25.294Z,-8.01
2024-01-09T14:19:54.917Z,-8.19
2024-01-09T14:22:26.310Z,-8.39
2024-01-09T14:24:55.105Z,-8.67
2024-01-09T14:27:24.610Z,-8.80
2024-01-09T14:29:56.550Z,-8.92
2024-01-09T14:32:26.412Z,-9.00
2024-01-09T14:34:56.241Z,-9.07
2024-01-09T14:37:26.621Z,-9.12
2024-01-09T14:39:55.402Z,-9.17
2024-01-09T14:42:25.124Z,-9.25
2024-01-09T14:44:56.424Z,-9.29
2024-01-09T14:47:30.509Z,-9.33
2024-01-09T14:49:59.282Z,-9.43
2024-01-09T14:52:28.913Z,-9.47
2024-01-09T14:54:57.788Z,-9.56
2024-01-09T14:57:26.461Z,-9.62
2024-01-09T14:59:55.344Z,-9.68
2024-01-09T15:02:24.483Z,-9.66
2024-01-09T15:04:53.540Z,-9.70
2024-01-09T15:07:22.420Z,-9.76
2024-01-09T15:09:53.807Z,-9.85
2024-01-09T15:12:22.420Z,-9.86
2024-01-09T15:14:55.122Z,-9.85
2024-01-09T15:17:23.750Z,-9.80
2024-01-09T15:19:53.973Z,-9.81
2024-01-09T15:22:22.718Z,-9.96
2024-01-09T15:24:51.259Z,-10.00
2024-01-09T15:27:19.885Z,-10.02
2024-01-09T15:29:50.888Z,-10.09
2024-01-09T15:32:20.615Z,-10.11
2024-01-09T15:34:49.571Z,-10.11
2024-01-09T15:37:18.697Z,-10.17
2024-01-09T15:39:48.032Z,-10.24
2024-01-09T15:42:17.322Z,-10.34
2024-01-09T15:44:46.024Z,-10.33
2024-01-09T15:47:14.512Z,-10.30
2024-01-09T15:49:43.426Z,-10.29
2024-01-09T15:52:12.204Z,-10.30
2024-01-09T15:54:43.075Z,-10.42
2024-01-09T15:57:12.910Z,-10.55
2024-01-09T15:59:41.834Z,-10.58
2024-01-09T16:02:10.930Z,-10.56
2024-01-09T16:04:46.084Z,-10.54
2024-01-09T16:07:15.231Z,-10.57
2024-01-09T16:09:44.171Z,-10.59
2024-01-09T16:12:16.107Z,-10.58
2024-01-09T16:14:44.691Z,-10.57
2024-01-09T16:17:21.365Z,-10.51
2024-01-09T16:19:50.568Z,-10.49
2024-01-09T16:22:22.307Z,-10.51
2024-01-09T16:24:51.710Z,-10.49
2024-01-09T16:27:21.967Z,-10.51
2024-01-09T16:29:50.709Z,-10.62
2024-01-09T16:32:19.409Z,-10.64
2024-01-09T16:34:49.214Z,-10.66
2024-01-09T16:37:18.095Z,-10.69
2024-01-09T16:39:46.991Z,-10.70
2024-01-09T16:42:15.783Z,-10.66
2024-01-09T16:44:44.669Z,-10.66
2024-01-09T16:47:13.980Z,-10.67
2024-01-09T16:49:43.657Z,-10.67
2024-01-09T16:52:12.470Z,-10.61
2024-01-09T16:54:41.500Z,-10.60
2024-01-09T16:57:12.037Z,-10.58
2024-01-09T16:59:41.493Z,-10.59
2024-01-09T17:02:13.248Z,-10.61
2024-01-09T17:04:42.915Z,-10.62
2024-01-09T17:07:11.640Z,-10.64
2024-01-09T17:09:44.219Z,-10.67
2024-01-09T17:12:12.895Z,-10.72
2024-01-09T17:14:46.048Z,-10.78
2024-01-09T17:17:15.006Z,-10.86
2024-01-09T17:19:45.138Z,-10.91
2024-01-09T17:22:14.093Z,-10.96
2024-01-09T17:24:44.937Z,-11.00
2024-01-09T17:27:13.514Z,-11.03
2024-01-09T17:29:42.695Z,-11.07
2024-01-09T17:32:11.892Z,-11.09
2024-01-09T17:34:44.611Z,-11.11
2024-01-09T17:37:14.293Z,-11.12
2024-01-09T17:39:45.118Z,-11.11
2024-01-09T17:42:13.616Z,-11.08
2024-01-09T17:44:42.297Z,-11.05
2024-01-09T17:47:11.099Z,-11.02
2024-01-09T17:49:40.201Z,-10.98
2024-01-09T17:52:10.301Z,-10.94
2024-01-09T17:54:39.102Z,-10.93
2024-01-09T17:57:07.773Z,-10.92
2024-01-09T17:59:37.076Z,-10.93
2024-01-09T18:02:06.250Z,-10.96
2024-01-09T18:04:38.464Z,-11.00
2024-01-09T18:07:08.863Z,-11.03
2024-01-09T18:09:37.650Z,-11.06
2024-01-09T18:12:07.206Z,-11.08
2024-01-09T18:14:35.839Z,-11.09
2024-01-09T18:17:08.159Z,-11.09
2024-01-09T18:19:36.822Z,-11.11
2024-01-09T18:22:05.595Z,-11.12
2024-01-09T18:24:34.887Z,-11.14
2024-01-09T18:27:06.392Z,-11.16
2024-01-09T18:29:36.812Z,-11.20
2024-01-09T18:32:06.315Z,-11.20
2024-01-09T18:34:38.229Z,-11.20
2024-01-09T18:37:06.923Z,-11.22
2024-01-09T18:39:37.683Z,-11.23
2024-01-09T18:42:07.057Z,-11.26
2024-01-09T18:44:35.644Z,-11.28
2024-01-09T18:47:05.216Z,-11.30
2024-01-09T18:49:35.872Z,-11.32
2024-01-09T18:52:06.674Z,-11.36
2024-01-09T18:54:35.119Z,-11.38
2024-01-09T18:57:05.006Z,-11.39
2024-01-09T18:59:34.104Z,-11.41
2024-01-09T19:02:03.340Z,-11.42
2024-01-09T19:04:33.294Z,-11.43
2024-01-09T19:07:02.025Z,-11.42
2024-01-09T19:09:30.795Z,-11.43
2024-01-09T19:11:59.394Z,-11.42
2024-01-09T19:14:29.418Z,-11.37
2024-01-09T19:17:00.517Z,-11.31
2024-01-09T19:19:30.895Z,-11.26
2024-01-09T19:21:59.483Z,-11.24
2024-01-09T19:24:28.502Z,-11.24
2024-01-09T19:26:58.022Z,-11.23
2024-01-09T19:29:26.611Z,-11.22
2024-01-09T19:31:55.359Z,-11.21
2024-01-09T19:34:24.245Z,-11.21
2024-01-09T19:36:53.804Z,-11.20
2024-01-09T19:39:22.504Z,-11.20
2024-01-09T19:41:51.264Z,-11.20
2024-01-09T19:44:22.119Z,-11.19
2024-01-09T19:46:51.319Z,-11.20
2024-01-09T19:49:21.170Z,-11.22
2024-01-09T19:51:54.143Z,-11.27
2024-01-09T19:54:22.684Z,-11.31
2024-01-09T19:56:51.370Z,-11.37
2024-01-09T19:59:20.018Z,-11.43
2024-01-09T20:01:49.172Z,-11.47
2024-01-09T20:04:19.545Z,-11.50
2024-01-09T20:06:48.473Z,-11.53
2024-01-09T20:09:19.136Z,-11.54
2024-01-09T20:11:48.233Z,-11.52
2024-01-09T20:14:17.524Z,-11.52
2024-01-09T20:16:46.285Z,-11.52
2024-01-09T20:19:16.208Z,-11.51
2024-01-09T20:21:46.933Z,-11.51
2024-01-09T20:24:17.255Z,-11.51
2024-01-09T20:26:50.602Z,-11.51
2024-01-09T20:29:19.366Z,-11.51
2024-01-09T20:31:48.338Z,-11.53
2024-01-09T20:34:17.314Z,-11.55
2024-01-09T20:36:46.412Z,-11.58
2024-01-09T20:39:17.815Z,-11.60
2024-01-09T20:41:46.650Z,-11.64
2024-01-09T20:44:20.284Z,-11.66
2024-01-09T20:46:49.872Z,-11.68
2024-01-09T20:49:18.811Z,-11.68
2024-01-09T20:51:49.127Z,-11.66
2024-01-09T20:54:17.659Z,-11.66
2024-01-09T20:56:49.547Z,-11.67
2024-01-09T20:59:18.974Z,-11.68
2024-01-09T21:01:49.849Z,-11.69
2024-01-09T21:04:21.134Z,-11.66
2024-01-09T21:06:51.368Z,-11.65
2024-01-09T21:09:20.225Z,-11.67
2024-01-09T21:11:49.932Z,-11.77
2024-01-09T21:14:19.072Z,-11.74
2024-01-09T21:16:47.951Z,-11.67
2024-01-09T21:19:18.208Z,-11.63
2024-01-09T21:21:47.237Z,-11.58
2024-01-09T21:24:16.316Z,-11.52
2024-01-09T21:26:45.016Z,-11.50
2024-01-09T21:29:13.774Z,-11.44
2024-01-09T21:31:42.490Z,-11.36
2024-01-09T21:34:11.038Z,-11.32
2024-01-09T21:36:43.230Z,-11.29
2024-01-09T21:39:12.223Z,-11.29
2024-01-09T21:41:41.168Z,-11.32
2024-01-09T21:44:10.185Z,-11.39
2024-01-09T21:46:39.304Z,-11.49
2024-01-09T21:49:07.932Z,-11.59
2024-01-09T21:51:36.775Z,-11.70
2024-01-09T21:54:06.374Z,-11.80
2024-01-09T21:56:34.772Z,-11.88
2024-01-09T21:59:05.540Z,-11.93
2024-01-09T22:01:34.718Z,-11.94
2024-01-09T22:04:03.657Z,-11.91
2024-01-09T22:06:34.255Z,-11.89
2024-01-09T22:09:03.205Z,-11.91
2024-01-09T22:11:31.743Z,-11.89
2024-01-09T22:14:00.392Z,-11.83
2024-01-09T22:16:29.263Z,-11.84
2024-01-09T22:18:57.900Z,-11.93
2024-01-09T22:21:27.650Z,-11.92
2024-01-09T22:23:56.146Z,-11.87
2024-01-09T22:26:24.920Z,-11.84
2024-01-09T22:28:53.723Z,-11.83
2024-01-09T22:31:22.704Z,-11.82
2024-01-09T22:33:51.682Z,-11.79
2024-01-09T22:36:20.595Z,-11.77
2024-01-09T22:38:49.725Z,-11.76
2024-01-09T22:41:21.639Z,-11.74
2024-01-09T22:43:50.580Z,-11.75
2024-01-09T22:46:19.634Z,-11.82
2024-01-09T22:48:48.037Z,-11.84
2024-01-09T22:51:18.116Z,-11.83
2024-01-09T22:53:47.838Z,-11.82
2024-01-09T22:56:18.926Z,-11.78
2024-01-09T22:58:48.338Z,-11.76
2024-01-09T23:01:18.326Z,-11.72
2024-01-09T23:03:46.981Z,-11.71
2024-01-09T23:06:15.930Z,-11.69
2024-01-09T23:08:44.776Z,-11.67
2024-01-09T23:11:13.408Z,-11.71
2024-01-09T23:13:44.920Z,-11.79
2024-01-09T23:16:13.695Z,-11.82
2024-01-09T23:18:42.460Z,-11.82
2024-01-09T23:21:13.006Z,-11.81
2024-01-09T23:23:45.073Z,-11.84
2024-01-09T23:26:13.420Z,-11.89
2024-01-09T23:28:41.841Z,-11.93
2024-01-09T23:31:10.695Z,-11.95
2024-01-09T23:33:39.632Z,-11.97
2024-01-09T23:36:09.264Z,-11.99
2024-01-09T23:38:38.005Z,-12.01
2024-01-09T23:41:06.938Z,-12.02
2024-01-09T23:43:36.378Z,-12.04
2024-01-09T23:46:05.385Z,-12.03
2024-01-09T23:48:34.170Z,-12.04
2024-01-09T23:51:04.182Z,-12.07
2024-01-09T23:53:32.790Z,-12.12
2024-01-09T23:56:02.271Z,-12.19
2024-01-09T23:58:32.339Z,-12.27
